createdAt,value
2022-10-22T00:02:52.100Z,19.40
2022-10-22T00:05:54.783Z,20.67
2022-10-22T00:08:57.272Z,19.00
2022-10-22T00:11:59.722Z,17.67
2022-10-22T00:15:03.509Z,15.20
2022-10-22T00:18:06.207Z,16.80
2022-10-22T00:21:09.143Z,21.55
2022-10-22T00:24:11.528Z,16.40
2022-10-22T00:27:14.322Z,16.97
2022-10-22T00:30:17.031Z,17.45
2022-10-22T00:33:19.390Z,18.20
2022-10-22T00:36:21.891Z,13.32
2022-10-22T00:39:26.660Z,15.47
2022-10-22T00:42:30.417Z,17.33
2022-10-22T00:45:32.788Z,16.23
2022-10-22T00:48:35.320Z,15.43
2022-10-22T00:51:37.759Z,15.68
2022-10-22T00:54:41.347Z,18.40
2022-10-22T00:57:43.941Z,15.57
2022-10-22T01:00:47.191Z,14.90
2022-10-22T01:03:50.558Z,19.83
2022-10-22T01:06:53.012Z,15.85
2022-10-22T01:10:16.621Z,18.03
2022-10-22T01:13:45.758Z,17.53
2022-10-22T01:16:54.507Z,17.70
2022-10-22T01:20:26.968Z,16.88
2022-10-22T01:23:57.755Z,18.48
2022-10-22T01:27:00.023Z,13.03
2022-10-22T01:30:06.652Z,15.03
2022-10-22T01:33:13.143Z,15.95
2022-10-22T01:36:17.716Z,13.35
2022-10-22T01:39:21.436Z,14.85
2022-10-22T01:42:23.892Z,16.00
2022-10-22T01:45:28.787Z,15.10
2022-10-22T01:48:45.831Z,17.48
2022-10-22T01:51:58.494Z,112.63
2022-10-22T01:55:22.492Z,147.35
2022-10-22T01:58:33.341Z,84.77
2022-10-22T02:01:47.510Z,42.40
2022-10-22T02:04:56.711Z,32.60
2022-10-22T02:08:07.849Z,20.80
2022-10-22T02:11:13.370Z,16.92
2022-10-22T02:14:18.402Z,17.70
2022-10-22T02:17:22.547Z,21.50
2022-10-22T02:20:31.429Z,19.88
2022-10-22T02:23:33.939Z,18.00
2022-10-22T02:26:42.040Z,19.13
2022-10-22T02:30:18.406Z,21.80
2022-10-22T02:33:27.988Z,18.93
2022-10-22T02:36:31.918Z,20.15
2022-10-22T02:39:36.647Z,16.02
2022-10-22T02:42:41.265Z,20.15
2022-10-22T02:45:44.073Z,23.87
2022-10-22T02:48:47.518Z,18.27
2022-10-22T02:51:49.897Z,22.02
2022-10-22T02:54:52.283Z,17.08
2022-10-22T02:57:54.736Z,17.35
2022-10-22T03:00:57.245Z,18.47
2022-10-22T03:03:59.651Z,16.63
2022-10-22T03:07:02.078Z,17.95
2022-10-22T03:10:05.033Z,21.77
2022-10-22T03:13:07.472Z,17.60
2022-10-22T03:16:09.869Z,17.63
2022-10-22T03:19:12.334Z,17.70
2022-10-22T03:22:29.372Z,18.02
2022-10-22T03:25:34.532Z,15.93
2022-10-22T03:28:39.130Z,18.95
2022-10-22T03:31:42.068Z,18.57
2022-10-22T03:34:44.531Z,15.80
2022-10-22T03:37:46.895Z,16.30
2022-10-22T03:40:49.666Z,18.27
2022-10-22T03:43:53.294Z,16.45
2022-10-22T03:46:58.665Z,19.67
2022-10-22T03:50:05.771Z,18.03
2022-10-22T03:53:10.564Z,18.58
2022-10-22T03:56:13.420Z,20.60
2022-10-22T03:59:16.167Z,21.33
2022-10-22T04:02:18.507Z,18.17
2022-10-22T04:05:20.866Z,22.23
2022-10-22T04:08:23.249Z,26.73
2022-10-22T04:11:25.645Z,24.75
2022-10-22T04:14:28.193Z,24.90
2022-10-22T04:17:35.693Z,26.23
2022-10-22T04:20:38.063Z,26.40
2022-10-22T04:23:48.525Z,27.10
2022-10-22T04:26:51.020Z,23.05
2022-10-22T04:29:53.443Z,24.73
2022-10-22T04:32:55.807Z,32.00
2022-10-22T04:35:58.161Z,32.43
2022-10-22T04:39:01.694Z,30.05
2022-10-22T04:42:04.255Z,31.58
2022-10-22T04:45:07.030Z,31.50
2022-10-22T04:48:09.390Z,28.43
2022-10-22T04:51:14.938Z,29.23
2022-10-22T04:54:17.363Z,27.33
2022-10-22T04:57:19.689Z,24.10
2022-10-22T05:00:22.114Z,27.60
2022-10-22T05:03:27.600Z,25.60
2022-10-22T05:06:31.790Z,29.20
2022-10-22T05:09:34.156Z,26.85
2022-10-22T05:12:36.551Z,25.25
2022-10-22T05:15:38.910Z,24.90
2022-10-22T05:18:44.251Z,26.83
2022-10-22T05:21:46.872Z,30.20
2022-10-22T05:24:49.224Z,33.58
2022-10-22T05:27:51.611Z,32.78
2022-10-22T05:30:56.319Z,48.85
2022-10-22T05:33:58.752Z,40.87
2022-10-22T05:37:01.123Z,37.73
2022-10-22T05:40:18.986Z,37.33
2022-10-22T05:43:29.644Z,43.85
2022-10-22T05:46:35.156Z,32.70
2022-10-22T05:49:37.612Z,32.93
2022-10-22T05:52:40.162Z,34.13
2022-10-22T05:55:42.822Z,30.98
2022-10-22T05:58:45.655Z,29.98
2022-10-22T06:01:48.069Z,27.42
2022-10-22T06:04:50.408Z,28.27
2022-10-22T06:07:53.462Z,42.43
2022-10-22T06:10:56.122Z,33.40
2022-10-22T06:13:58.590Z,35.88
2022-10-22T06:17:01.079Z,34.05
2022-10-22T06:23:07.818Z,31.07
2022-10-22T06:26:11.306Z,30.65
2022-10-22T06:29:13.975Z,27.48
2022-10-22T06:32:16.454Z,27.48
2022-10-22T06:35:18.887Z,28.30
2022-10-22T06:38:21.577Z,24.10
2022-10-22T06:41:28.581Z,26.75
2022-10-22T06:44:32.058Z,18.27
2022-10-22T06:47:34.453Z,19.65
2022-10-22T06:50:37.035Z,18.73
2022-10-22T06:53:40.272Z,19.60
2022-10-22T06:56:42.741Z,28.40
2022-10-22T06:59:46.585Z,22.95
2022-10-22T07:02:56.444Z,19.95
2022-10-22T07:06:03.750Z,20.87
2022-10-22T07:09:06.364Z,22.00
2022-10-22T07:12:08.830Z,18.42
2022-10-22T07:15:11.555Z,20.17
2022-10-22T07:18:13.869Z,20.25
2022-10-22T07:21:18.939Z,17.50
2022-10-22T07:24:21.295Z,14.70
2022-10-22T07:27:23.775Z,15.60
2022-10-22T07:30:26.114Z,13.15
2022-10-22T07:33:28.522Z,15.35
2022-10-22T07:36:30.871Z,14.20
2022-10-22T07:39:33.459Z,15.73
2022-10-22T07:42:35.896Z,18.20
2022-10-22T07:45:38.298Z,15.85
2022-10-22T07:48:40.820Z,15.07
2022-10-22T07:51:43.163Z,15.23
2022-10-22T07:54:46.007Z,14.50
2022-10-22T07:57:48.372Z,13.77
2022-10-22T08:00:51.131Z,16.80
2022-10-22T08:03:54.085Z,15.88
2022-10-22T08:06:56.521Z,14.87
2022-10-22T08:09:58.983Z,16.03
2022-10-22T08:13:01.363Z,14.23
2022-10-22T08:16:03.914Z,16.65
2022-10-22T08:19:06.390Z,17.15
2022-10-22T08:22:09.037Z,14.53
2022-10-22T08:25:12.225Z,15.50
2022-10-22T08:28:18.638Z,16.30
2022-10-22T08:31:23.904Z,13.35
2022-10-22T08:34:26.326Z,16.60
2022-10-22T08:37:28.743Z,14.23
2022-10-22T08:40:38.029Z,16.17
2022-10-22T08:44:05.446Z,16.67
2022-10-22T08:47:22.287Z,14.07
2022-10-22T08:50:39.745Z,17.27
2022-10-22T08:54:00.880Z,13.57
2022-10-22T08:57:03.154Z,13.77
2022-10-22T09:00:18.136Z,16.45
2022-10-22T09:03:28.579Z,18.88
2022-10-22T09:06:41.481Z,15.50
2022-10-22T09:09:50.805Z,14.40
2022-10-22T09:12:53.217Z,13.83
2022-10-22T09:16:00.228Z,14.25
2022-10-22T09:19:08.531Z,12.32
2022-10-22T09:22:27.474Z,14.32
2022-10-22T09:25:35.145Z,13.87
2022-10-22T09:28:37.505Z,16.70
2022-10-22T09:31:39.887Z,11.65
2022-10-22T09:34:47.821Z,13.95
2022-10-22T09:37:52.993Z,14.98
2022-10-22T09:40:57.972Z,14.13
2022-10-22T09:44:00.330Z,17.13
2022-10-22T09:47:43.354Z,17.88
2022-10-22T09:51:00.305Z,13.02
2022-10-22T09:54:15.246Z,14.20
2022-10-22T09:57:25.334Z,16.90
2022-10-22T10:00:29.577Z,14.03
2022-10-22T10:03:35.763Z,20.52
2022-10-22T10:06:41.075Z,13.85
2022-10-22T10:09:43.446Z,17.50
2022-10-22T10:13:02.065Z,17.20
2022-10-22T10:16:35.202Z,14.10
2022-10-22T10:20:03.799Z,15.18
2022-10-22T10:23:36.413Z,18.02
2022-10-22T10:26:59.979Z,16.38
2022-10-22T10:30:10.204Z,18.53
2022-10-22T10:33:43.873Z,20.43
2022-10-22T10:37:09.042Z,15.88
2022-10-22T10:40:37.690Z,16.02
2022-10-22T10:43:52.372Z,20.77
2022-10-22T10:47:06.996Z,19.97
2022-10-22T10:50:41.356Z,16.90
2022-10-22T10:54:02.447Z,18.70
2022-10-22T10:57:14.736Z,19.27
2022-10-22T11:00:20.110Z,17.13
2022-10-22T11:03:22.455Z,17.20
2022-10-22T11:06:26.515Z,19.67
2022-10-22T11:09:41.292Z,18.20
2022-10-22T11:12:50.448Z,21.42
2022-10-22T11:16:10.907Z,19.70
2022-10-22T11:19:22.848Z,19.63
2022-10-22T11:22:38.210Z,21.00
2022-10-22T11:25:48.848Z,21.70
2022-10-22T11:28:53.761Z,18.00
2022-10-22T11:31:57.162Z,22.20
2022-10-22T11:35:04.923Z,19.17
2022-10-22T11:38:11.989Z,20.37
2022-10-22T11:41:18.901Z,22.90
2022-10-22T11:44:23.652Z,18.42
2022-10-22T11:47:29.279Z,24.08
2022-10-22T11:50:52.959Z,18.77
2022-10-22T11:54:01.487Z,21.37
2022-10-22T11:57:13.414Z,37.35
2022-10-22T12:00:39.599Z,33.30
2022-10-22T12:03:43.990Z,21.90
2022-10-22T12:06:57.050Z,18.63
2022-10-22T12:09:59.894Z,21.57
2022-10-22T12:13:13.500Z,21.08
2022-10-22T12:16:23.593Z,24.80
2022-10-22T12:19:49.428Z,23.77
2022-10-22T12:22:53.115Z,21.13
2022-10-22T12:25:55.586Z,23.30
2022-10-22T12:29:00.184Z,24.25
2022-10-22T12:32:04.604Z,22.70
2022-10-22T12:35:11.861Z,20.98
2022-10-22T12:38:17.538Z,25.60
2022-10-22T12:41:22.132Z,27.17
2022-10-22T12:44:24.562Z,25.05
2022-10-22T12:47:29.852Z,21.35
2022-10-22T12:50:40.315Z,23.25
2022-10-22T12:53:49.349Z,25.57
2022-10-22T12:56:52.888Z,24.43
2022-10-22T12:59:55.406Z,31.73
2022-10-22T13:03:00.446Z,30.73
2022-10-22T13:06:33.690Z,28.85
2022-10-22T13:09:46.184Z,26.73
2022-10-22T13:12:56.073Z,28.60
2022-10-22T13:16:18.321Z,32.95
2022-10-22T13:19:44.104Z,28.48
2022-10-22T13:23:03.245Z,28.98
2022-10-22T13:26:16.874Z,35.37
2022-10-22T13:29:22.488Z,53.83
2022-10-22T13:32:31.193Z,45.25
2022-10-22T13:35:38.278Z,55.28
2022-10-22T13:38:41.232Z,47.78
2022-10-22T13:41:43.589Z,63.90
2022-10-22T13:44:46.196Z,76.47
2022-10-22T13:47:52.123Z,66.65
2022-10-22T13:50:54.667Z,44.47
2022-10-22T13:53:58.377Z,45.90
2022-10-22T13:57:01.449Z,44.73
2022-10-22T14:00:04.406Z,54.37
2022-10-22T14:03:18.736Z,54.78
2022-10-22T14:06:22.627Z,47.15
2022-10-22T14:09:25.090Z,48.67
2022-10-22T14:12:28.430Z,52.27
2022-10-22T14:15:30.830Z,48.10
2022-10-22T14:18:34.680Z,46.65
2022-10-22T14:21:38.112Z,56.80
2022-10-22T14:24:40.478Z,65.65
2022-10-22T14:27:43.959Z,80.37
2022-10-22T14:30:46.740Z,83.43
2022-10-22T14:33:50.409Z,63.22
2022-10-22T14:36:52.878Z,47.13
2022-10-22T14:40:01.294Z,66.35
2022-10-22T14:43:03.752Z,54.80
2022-10-22T14:46:06.202Z,64.23
2022-10-22T14:49:08.648Z,74.45
2022-10-22T14:52:14.176Z,71.55
2022-10-22T14:55:19.098Z,64.20
2022-10-22T14:58:21.544Z,59.20
2022-10-22T15:01:23.927Z,52.93
2022-10-22T15:04:27.242Z,63.80
2022-10-22T15:07:29.811Z,58.30
2022-10-22T15:10:32.334Z,66.88
2022-10-22T15:13:35.082Z,46.17
2022-10-22T15:16:37.448Z,49.20
2022-10-22T15:19:39.914Z,51.33
2022-10-22T15:22:42.763Z,60.85
2022-10-22T15:25:45.442Z,51.25
2022-10-22T15:28:47.984Z,85.53
2022-10-22T15:31:53.015Z,71.60
2022-10-22T15:34:56.051Z,87.35
2022-10-22T15:37:58.452Z,54.33
2022-10-22T15:41:06.021Z,55.63
2022-10-22T15:44:15.036Z,47.80
2022-10-22T15:47:17.410Z,63.67
2022-10-22T15:50:19.867Z,62.05
2022-10-22T15:53:22.551Z,54.03
2022-10-22T15:56:28.473Z,61.70
2022-10-22T15:59:30.923Z,61.10
2022-10-22T16:02:33.597Z,65.30
2022-10-22T16:05:35.958Z,73.25
2022-10-22T16:08:39.134Z,65.97
2022-10-22T16:11:42.158Z,62.22
2022-10-22T16:14:44.562Z,64.50
2022-10-22T16:17:47.131Z,81.60
2022-10-22T16:20:49.586Z,84.25
2022-10-22T16:23:52.706Z,82.80
2022-10-22T16:26:55.331Z,84.78
2022-10-22T16:29:57.749Z,72.50
2022-10-22T16:33:03.363Z,70.83
2022-10-22T16:36:17.941Z,69.65
2022-10-22T16:39:20.427Z,59.83
2022-10-22T16:42:22.925Z,63.97
2022-10-22T16:45:25.415Z,62.63
2022-10-22T16:48:27.861Z,58.40
2022-10-22T16:51:30.501Z,67.45
2022-10-22T16:54:33.137Z,63.72
2022-10-22T16:57:36.004Z,72.20
2022-10-22T17:00:38.391Z,78.93
2022-10-22T17:03:40.930Z,80.63
2022-10-22T17:06:43.827Z,68.70
2022-10-22T17:09:46.256Z,70.32
2022-10-22T17:12:48.966Z,68.97
2022-10-22T17:15:51.571Z,74.90
2022-10-22T17:18:55.622Z,77.40
2022-10-22T17:21:58.152Z,80.47
2022-10-22T17:25:08.590Z,75.57
2022-10-22T17:28:11.655Z,75.80
2022-10-22T17:31:37.242Z,73.03
2022-10-22T17:34:39.715Z,70.13
2022-10-22T17:37:42.781Z,65.43
2022-10-22T17:40:45.986Z,70.30
2022-10-22T17:43:48.850Z,96.30
2022-10-22T17:46:51.509Z,116.57
2022-10-22T17:49:54.192Z,133.33
2022-10-22T17:52:56.836Z,120.63
2022-10-22T17:56:07.035Z,113.57
2022-10-22T17:59:13.173Z,114.78
2022-10-22T18:02:17.246Z,113.40
2022-10-22T18:05:19.830Z,90.53
2022-10-22T18:08:25.536Z,113.90
2022-10-22T18:11:28.342Z,137.43
2022-10-22T18:14:30.954Z,107.70
2022-10-22T18:17:35.875Z,81.67
2022-10-22T18:20:41.143Z,61.47
2022-10-22T18:23:43.873Z,66.07
2022-10-22T18:26:46.651Z,57.75
2022-10-22T18:29:50.583Z,53.45
2022-10-22T18:32:53.301Z,47.97
2022-10-22T18:35:56.878Z,58.07
2022-10-22T18:39:01.636Z,66.68
2022-10-22T18:42:06.446Z,64.05
2022-10-22T18:45:12.415Z,70.03
2022-10-22T18:48:18.326Z,69.97
2022-10-22T18:51:30.674Z,69.80
2022-10-22T18:54:33.332Z,57.47
2022-10-22T18:57:39.033Z,53.83
2022-10-22T19:00:41.969Z,54.20
2022-10-22T19:03:47.901Z,51.00
2022-10-22T19:06:50.832Z,42.83
2022-10-22T19:09:58.429Z,39.75
2022-10-22T19:13:01.031Z,46.00
2022-10-22T19:16:09.570Z,42.55
2022-10-22T19:19:17.030Z,36.30
2022-10-22T19:22:20.862Z,35.57
2022-10-22T19:25:24.239Z,33.40
2022-10-22T19:28:27.240Z,37.47
2022-10-22T19:31:31.458Z,46.25
2022-10-22T19:34:35.630Z,52.80
2022-10-22T19:37:38.335Z,36.30
2022-10-22T19:40:42.083Z,40.20
2022-10-22T19:43:45.922Z,39.17
2022-10-22T19:46:48.635Z,38.40
2022-10-22T19:49:51.407Z,40.00
2022-10-22T19:52:54.539Z,44.80
2022-10-22T19:55:58.736Z,43.35
2022-10-22T19:59:03.079Z,35.65
2022-10-22T20:02:05.650Z,37.58
2022-10-22T20:05:08.822Z,36.33
2022-10-22T20:08:11.552Z,33.87
2022-10-22T20:11:21.139Z,37.38
2022-10-22T20:14:23.879Z,37.05
2022-10-22T20:17:26.419Z,32.85
2022-10-22T20:20:29.415Z,31.97
2022-10-22T20:23:31.881Z,36.53
2022-10-22T20:26:34.750Z,31.50
2022-10-22T20:29:37.322Z,28.85
2022-10-22T20:32:40.908Z,31.67
2022-10-22T20:35:44.907Z,30.20
2022-10-22T20:38:52.699Z,29.60
2022-10-22T20:42:00.597Z,33.60
2022-10-22T20:45:03.480Z,38.58
2022-10-22T20:48:06.641Z,35.58
2022-10-22T20:51:09.683Z,33.93
2022-10-22T20:54:14.396Z,32.27
2022-10-22T20:57:16.875Z,30.58
2022-10-22T21:00:19.315Z,31.75
2022-10-22T21:03:22.040Z,28.83
2022-10-22T21:06:24.666Z,33.43
2022-10-22T21:09:28.096Z,41.83
2022-10-22T21:12:30.456Z,26.77
2022-10-22T21:15:32.959Z,29.13
2022-10-22T21:18:35.546Z,31.77
2022-10-22T21:21:37.993Z,26.07
2022-10-22T21:24:41.282Z,26.60
2022-10-22T21:27:43.817Z,24.08
2022-10-22T21:30:46.268Z,24.67
2022-10-22T21:33:49.931Z,28.23
2022-10-22T21:36:52.990Z,26.93
2022-10-22T21:39:55.942Z,26.33
2022-10-22T21:42:58.341Z,24.50
2022-10-22T21:46:22.762Z,27.02
2022-10-22T21:49:25.185Z,28.50
2022-10-22T21:52:27.581Z,28.03
2022-10-22T21:55:30.514Z,27.13
2022-10-22T21:58:36.900Z,23.73
2022-10-22T22:01:39.406Z,28.38
2022-10-22T22:04:41.903Z,27.45
2022-10-22T22:07:44.279Z,24.53
2022-10-22T22:10:46.637Z,25.00
2022-10-22T22:13:50.014Z,24.58
2022-10-22T22:16:52.360Z,27.67
2022-10-22T22:19:54.719Z,27.27
2022-10-22T22:22:57.105Z,26.37
2022-10-22T22:26:01.073Z,28.73
2022-10-22T22:29:03.783Z,28.63
2022-10-22T22:32:06.266Z,29.10
2022-10-22T22:35:08.664Z,28.17
2022-10-22T22:38:11.151Z,26.43
2022-10-22T22:41:13.694Z,28.20
2022-10-22T22:44:16.362Z,31.40
2022-10-22T22:47:18.723Z,26.33
2022-10-22T22:50:21.083Z,32.88
2022-10-22T22:53:23.736Z,29.97
2022-10-22T22:56:29.051Z,31.13
2022-10-22T22:59:31.450Z,32.70
2022-10-22T23:02:33.809Z,32.00
2022-10-22T23:05:37.677Z,28.70
2022-10-22T23:08:40.430Z,28.53
2022-10-22T23:11:44.096Z,31.30
2022-10-22T23:14:46.755Z,29.67
2022-10-22T23:17:49.138Z,35.55
2022-10-22T23:20:52.517Z,33.65
2022-10-22T23:23:57.321Z,33.13
2022-10-22T23:27:02.467Z,30.83
2022-10-22T23:30:05.441Z,36.92
2022-10-22T23:33:08.762Z,30.30
2022-10-22T23:36:11.975Z,31.85
2022-10-22T23:39:17.451Z,35.13
2022-10-22T23:42:19.880Z,37.50
2022-10-22T23:45:22.222Z,32.63
2022-10-22T23:48:24.600Z,41.70
2022-10-22T23:51:27.138Z,36.85
2022-10-22T23:54:29.517Z,34.20
2022-10-22T23:57:31.880Z,32.47
